Terminal Aerodrome Forecast
Issued by NWS

Home | Current Version | Previous Version | Text Only | Print | Product List | Glossary On
Versions: 1 2 3 4 5 6 7 8 9 10 11 12 13 14 15 16
000
FTUS43 KTOP 302210 AAB
TAFMHK
TAF AMD
KMHK 302210Z 3022/3118 19011KT P6SM SCT050
     FM310100 17005KT P6SM SCT040 SCT250
     FM311000 19005KT 5SM BR SCT010 BKN020
     FM311400 20006KT P6SM VCTS BKN020CB=

USA.gov is the U.S. government's official web portal to all federal, state and local government web resources and services.